createdAt,value
2023-02-19T00:02:28.466Z,9.88
2023-02-19T00:05:03.309Z,9.63
2023-02-19T00:07:38.014Z,9.75
2023-02-19T00:10:12.106Z,10.50
2023-02-19T00:12:45.757Z,12.05
2023-02-19T00:15:19.701Z,10.95
2023-02-19T00:17:53.207Z,10.43
2023-02-19T00:20:26.907Z,9.33
2023-02-19T00:23:00.203Z,11.18
2023-02-19T00:25:33.641Z,9.13
2023-02-19T00:28:09.575Z,10.35
2023-02-19T00:30:43.031Z,10.20
2023-02-19T00:33:17.079Z,9.33
2023-02-19T00:35:50.630Z,10.88
2023-02-19T00:38:23.726Z,10.15
2023-02-19T00:40:57.336Z,7.53
2023-02-19T00:43:31.314Z,10.05
2023-02-19T00:46:04.823Z,8.70
2023-02-19T00:48:38.364Z,9.78
2023-02-19T00:51:12.192Z,9.60
2023-02-19T00:53:46.463Z,10.28
2023-02-19T00:56:19.951Z,9.33
2023-02-19T00:58:53.528Z,8.73
2023-02-19T01:01:27.150Z,7.55
2023-02-19T01:04:00.419Z,9.13
2023-02-19T01:06:34.830Z,9.40
2023-02-19T01:09:09.101Z,8.48
2023-02-19T01:11:42.662Z,10.82
2023-02-19T01:14:16.564Z,10.53
2023-02-19T01:16:50.099Z,12.88
2023-02-19T01:19:23.408Z,9.60
2023-02-19T01:21:56.942Z,9.58
2023-02-19T01:24:30.608Z,9.25
2023-02-19T01:27:03.890Z,11.43
2023-02-19T01:29:37.238Z,10.05
2023-02-19T01:32:11.629Z,10.48
2023-02-19T01:34:45.164Z,10.68
2023-02-19T01:37:18.702Z,11.22
2023-02-19T01:39:52.017Z,10.82
2023-02-19T01:42:25.590Z,7.47
2023-02-19T01:45:33.444Z,10.23
2023-02-19T01:48:11.512Z,10.88
2023-02-19T01:50:48.358Z,9.38
2023-02-19T01:53:25.366Z,9.37
2023-02-19T01:56:01.237Z,10.00
2023-02-19T01:58:37.357Z,11.68
2023-02-19T02:01:12.266Z,9.90
2023-02-19T02:03:49.043Z,10.60
2023-02-19T02:06:25.987Z,11.03
2023-02-19T02:09:18.359Z,10.68
2023-02-19T02:11:54.724Z,11.33
2023-02-19T02:14:30.913Z,9.35
2023-02-19T02:17:08.086Z,11.83
2023-02-19T02:19:55.125Z,10.65
2023-02-19T02:22:30.960Z,10.40
2023-02-19T02:25:39.519Z,11.68
2023-02-19T02:28:32.387Z,9.03
2023-02-19T02:31:09.607Z,8.90
2023-02-19T02:33:46.014Z,10.30
2023-02-19T02:36:22.364Z,10.48
2023-02-19T02:38:57.011Z,10.82
2023-02-19T02:41:30.950Z,7.83
2023-02-19T02:44:07.012Z,9.18
2023-02-19T02:46:43.572Z,10.97
2023-02-19T02:49:20.172Z,9.03
2023-02-19T02:51:55.963Z,9.93
2023-02-19T02:57:22.185Z,10.03
2023-02-19T02:59:57.928Z,9.63
2023-02-19T03:02:33.131Z,7.70
2023-02-19T03:05:26.576Z,10.72
2023-02-19T03:08:04.198Z,10.20
2023-02-19T03:10:40.575Z,8.10
2023-02-19T03:13:33.782Z,10.05
2023-02-19T03:16:27.723Z,9.68
2023-02-19T03:19:21.349Z,11.33
2023-02-19T03:24:59.460Z,8.80
2023-02-19T03:27:37.566Z,10.78
2023-02-19T03:30:16.037Z,9.70
2023-02-19T03:32:52.578Z,10.03
2023-02-19T03:35:29.350Z,8.67
2023-02-19T03:38:07.785Z,10.60
2023-02-19T03:40:44.941Z,10.05
2023-02-19T03:43:22.538Z,9.28
2023-02-19T03:46:01.751Z,8.37
2023-02-19T03:48:37.425Z,9.58
2023-02-19T03:51:18.039Z,9.50
2023-02-19T03:53:56.186Z,9.03
2023-02-19T03:56:32.798Z,7.62
2023-02-19T04:01:43.528Z,7.85
2023-02-19T04:04:21.056Z,7.55
2023-02-19T04:06:57.521Z,7.40
2023-02-19T04:09:35.576Z,7.97
2023-02-19T04:12:12.208Z,10.35
2023-02-19T04:14:48.796Z,8.68
2023-02-19T04:17:24.536Z,6.95
2023-02-19T04:20:00.351Z,9.33
2023-02-19T04:22:35.548Z,8.85
2023-02-19T04:25:10.420Z,9.23
2023-02-19T04:27:45.195Z,9.38
2023-02-19T04:30:18.859Z,9.00
2023-02-19T04:32:52.279Z,7.83
2023-02-19T04:35:25.366Z,10.50
2023-02-19T04:37:59.288Z,9.78
2023-02-19T04:40:32.878Z,8.28
2023-02-19T04:43:06.225Z,9.25
2023-02-19T04:45:41.109Z,10.50
2023-02-19T04:48:15.038Z,11.12
2023-02-19T04:50:48.429Z,10.75
2023-02-19T04:53:21.894Z,9.48
2023-02-19T04:55:55.366Z,9.90
2023-02-19T04:58:28.666Z,8.98
2023-02-19T05:01:02.000Z,10.78
2023-02-19T05:03:35.988Z,9.10
2023-02-19T05:06:12.058Z,9.23
2023-02-19T05:08:45.672Z,9.70
2023-02-19T05:11:19.154Z,9.25
2023-02-19T05:13:52.592Z,8.83
2023-02-19T05:16:26.906Z,10.00
2023-02-19T05:19:00.410Z,9.25
2023-02-19T05:21:34.028Z,9.23
2023-02-19T05:24:08.526Z,10.13
2023-02-19T05:26:44.553Z,8.30
2023-02-19T05:29:17.107Z,8.85
2023-02-19T05:31:50.781Z,8.53
2023-02-19T05:34:24.383Z,8.23
2023-02-19T05:36:58.982Z,6.50
2023-02-19T05:39:32.319Z,7.87
2023-02-19T05:42:08.365Z,7.45
2023-02-19T05:44:43.035Z,8.27
2023-02-19T05:47:17.803Z,9.10
2023-02-19T05:49:51.254Z,7.37
2023-02-19T05:52:25.134Z,7.87
2023-02-19T05:54:58.711Z,8.00
2023-02-19T05:57:32.174Z,7.28
2023-02-19T06:00:07.692Z,7.90
2023-02-19T06:02:42.744Z,8.53
2023-02-19T06:05:17.219Z,8.40
2023-02-19T06:07:51.493Z,8.13
2023-02-19T06:10:24.947Z,6.22
2023-02-19T06:12:58.323Z,7.90
2023-02-19T06:15:31.731Z,7.50
2023-02-19T06:18:06.011Z,7.60
2023-02-19T06:20:39.301Z,7.67
2023-02-19T06:23:12.663Z,8.73
2023-02-19T06:25:46.122Z,8.25
2023-02-19T06:28:19.745Z,5.58
2023-02-19T06:30:53.504Z,8.28
2023-02-19T06:33:27.590Z,7.35
2023-02-19T06:36:02.824Z,8.38
2023-02-19T06:38:36.332Z,8.70
2023-02-19T06:41:11.314Z,7.60
2023-02-19T06:43:44.960Z,7.28
2023-02-19T06:46:18.603Z,7.92
2023-02-19T06:48:52.808Z,8.58
2023-02-19T06:51:29.019Z,7.45
2023-02-19T06:54:03.311Z,8.03
2023-02-19T06:56:39.596Z,8.23
2023-02-19T06:59:17.022Z,7.70
2023-02-19T07:01:50.763Z,7.70
2023-02-19T07:04:24.611Z,8.03
2023-02-19T07:06:59.970Z,6.72
2023-02-19T07:09:33.693Z,7.85
2023-02-19T07:12:08.535Z,7.17
2023-02-19T07:14:42.134Z,7.37
2023-02-19T07:17:15.762Z,6.83
2023-02-19T07:19:48.807Z,6.87
2023-02-19T07:22:23.309Z,8.00
2023-02-19T07:24:56.956Z,8.85
2023-02-19T07:27:30.552Z,9.88
2023-02-19T07:30:03.859Z,6.58
2023-02-19T07:32:37.323Z,7.22
2023-02-19T07:35:11.498Z,7.53
2023-02-19T07:37:44.975Z,8.18
2023-02-19T07:40:18.774Z,5.72
2023-02-19T07:42:52.109Z,6.53
2023-02-19T07:45:25.594Z,7.53
2023-02-19T07:47:58.960Z,7.28
2023-02-19T07:50:32.818Z,6.90
2023-02-19T07:53:06.205Z,7.45
2023-02-19T07:55:39.705Z,6.30
2023-02-19T07:58:13.039Z,6.53
2023-02-19T08:00:46.910Z,6.37
2023-02-19T08:03:20.480Z,10.05
2023-02-19T08:05:55.163Z,6.80
2023-02-19T08:08:48.720Z,7.72
2023-02-19T08:11:39.651Z,6.42
2023-02-19T08:14:13.215Z,6.42
2023-02-19T08:16:52.528Z,8.33
2023-02-19T08:19:26.350Z,5.90
2023-02-19T08:22:00.039Z,6.25
2023-02-19T08:24:34.033Z,7.78
2023-02-19T08:27:07.578Z,7.37
2023-02-19T08:29:41.075Z,7.35
2023-02-19T08:32:14.699Z,5.30
2023-02-19T08:34:47.992Z,8.35
2023-02-19T08:37:21.359Z,7.12
2023-02-19T08:39:54.797Z,6.72
2023-02-19T08:42:29.433Z,9.30
2023-02-19T08:45:02.765Z,7.90
2023-02-19T08:47:38.337Z,7.37
2023-02-19T08:50:12.745Z,7.87
2023-02-19T08:52:46.083Z,9.43
2023-02-19T08:55:19.934Z,7.97
2023-02-19T08:57:53.605Z,9.10
2023-02-19T09:00:27.526Z,7.22
2023-02-19T09:03:01.778Z,7.03
2023-02-19T09:05:35.293Z,8.08
2023-02-19T09:08:08.522Z,7.00
2023-02-19T09:10:42.122Z,6.78
2023-02-19T09:13:17.990Z,8.55
2023-02-19T09:15:51.733Z,7.47
2023-02-19T09:18:25.749Z,7.70
2023-02-19T09:21:02.772Z,7.10
2023-02-19T09:23:37.550Z,9.65
2023-02-19T09:26:13.662Z,7.12
2023-02-19T09:28:47.891Z,7.30
2023-02-19T09:31:21.364Z,12.13
2023-02-19T09:33:54.853Z,7.47
2023-02-19T09:36:28.287Z,8.53
2023-02-19T09:39:02.125Z,6.72
2023-02-19T09:41:38.405Z,9.30
2023-02-19T09:44:14.675Z,6.50
2023-02-19T09:46:50.467Z,8.55
2023-02-19T09:49:26.973Z,7.53
2023-02-19T09:52:04.314Z,7.17
2023-02-19T09:54:39.632Z,8.50
2023-02-19T09:57:16.176Z,6.70
2023-02-19T09:59:52.807Z,8.15
2023-02-19T10:02:27.749Z,6.55
2023-02-19T10:05:02.772Z,8.30
2023-02-19T10:07:40.580Z,9.75
2023-02-19T10:10:34.719Z,8.73
2023-02-19T10:13:21.828Z,7.97
2023-02-19T10:15:58.883Z,8.30
2023-02-19T10:18:35.496Z,8.23
2023-02-19T10:21:10.055Z,6.90
2023-02-19T10:23:45.415Z,8.55
2023-02-19T10:26:18.943Z,7.85
2023-02-19T10:28:54.305Z,9.18
2023-02-19T10:31:28.215Z,8.18
2023-02-19T10:34:03.647Z,8.98
2023-02-19T10:36:39.779Z,8.18
2023-02-19T10:42:22.734Z,9.98
2023-02-19T10:45:01.418Z,9.50
2023-02-19T10:47:36.102Z,7.05
2023-02-19T10:50:19.780Z,7.53
2023-02-19T10:52:57.335Z,7.65
2023-02-19T10:55:37.732Z,9.75
2023-02-19T10:58:28.726Z,7.15
2023-02-19T11:01:15.134Z,8.30
2023-02-19T11:03:49.943Z,7.83
2023-02-19T11:06:26.009Z,8.40
2023-02-19T11:09:02.199Z,8.10
2023-02-19T11:11:38.442Z,6.87
2023-02-19T11:14:19.849Z,8.00
2023-02-19T11:16:56.954Z,8.95
2023-02-19T11:19:37.975Z,8.88
2023-02-19T11:22:31.906Z,9.78
2023-02-19T11:25:09.906Z,9.38
2023-02-19T11:27:58.621Z,9.20
2023-02-19T11:30:43.376Z,8.15
2023-02-19T11:33:28.568Z,8.20
2023-02-19T11:36:20.382Z,7.47
2023-02-19T11:38:54.098Z,9.50
2023-02-19T11:41:54.513Z,9.38
2023-02-19T11:44:34.347Z,9.03
2023-02-19T11:47:18.698Z,8.83
2023-02-19T11:49:55.070Z,9.05
2023-02-19T11:52:32.634Z,8.53
2023-02-19T11:55:11.458Z,9.53
2023-02-19T11:57:48.817Z,8.08
2023-02-19T12:00:28.456Z,9.55
2023-02-19T12:03:31.226Z,10.30
2023-02-19T12:06:16.328Z,10.50
2023-02-19T12:09:35.623Z,8.70
2023-02-19T12:12:17.326Z,9.73
2023-02-19T12:15:45.706Z,9.55
2023-02-19T12:18:33.968Z,9.48
2023-02-19T12:21:16.085Z,8.93
2023-02-19T12:24:04.503Z,8.90
2023-02-19T12:26:41.445Z,10.53
2023-02-19T12:29:22.881Z,10.88
2023-02-19T12:32:31.661Z,9.98
2023-02-19T12:35:30.916Z,10.03
2023-02-19T12:38:10.904Z,9.13
2023-02-19T12:40:51.713Z,9.60
2023-02-19T12:43:26.362Z,9.30
2023-02-19T12:46:03.069Z,9.35
2023-02-19T12:48:39.905Z,9.20
2023-02-19T12:51:16.286Z,10.00
2023-02-19T12:53:52.249Z,9.10
2023-02-19T12:56:28.748Z,8.60
2023-02-19T12:59:05.246Z,8.65
2023-02-19T13:01:42.612Z,11.00
2023-02-19T13:07:00.445Z,7.97
2023-02-19T13:09:37.450Z,10.63
2023-02-19T13:12:15.498Z,11.38
2023-02-19T13:14:52.473Z,8.35
2023-02-19T13:17:30.054Z,11.97
2023-02-19T13:22:58.191Z,9.35
2023-02-19T13:25:35.352Z,10.55
2023-02-19T13:28:24.467Z,8.58
2023-02-19T13:31:09.416Z,10.60
2023-02-19T13:33:50.977Z,6.53
2023-02-19T13:36:27.427Z,9.83
2023-02-19T13:39:03.870Z,8.68
2023-02-19T13:41:41.070Z,9.28
2023-02-19T13:44:20.885Z,6.65
2023-02-19T13:46:57.057Z,9.75
2023-02-19T13:49:50.612Z,10.00
2023-02-19T13:52:41.812Z,9.25
2023-02-19T13:55:51.602Z,10.43
2023-02-19T13:59:00.578Z,10.30
2023-02-19T14:02:18.991Z,10.72
2023-02-19T14:04:59.489Z,11.12
2023-02-19T14:07:55.386Z,10.90
2023-02-19T14:11:06.100Z,10.25
2023-02-19T14:14:28.495Z,9.90
2023-02-19T14:17:08.620Z,9.73
2023-02-19T14:19:54.769Z,9.60
2023-02-19T14:22:51.480Z,8.43
2023-02-19T14:25:47.015Z,10.70
2023-02-19T14:28:44.752Z,9.00
2023-02-19T14:31:31.162Z,9.53
2023-02-19T14:34:07.561Z,10.00
2023-02-19T14:36:49.231Z,9.90
2023-02-19T14:39:24.986Z,11.15
2023-02-19T14:42:01.564Z,10.18
2023-02-19T14:44:40.168Z,9.30
2023-02-19T14:47:18.892Z,9.78
2023-02-19T14:49:56.644Z,11.78
2023-02-19T14:52:33.185Z,11.25
2023-02-19T14:55:09.952Z,10.85
2023-02-19T14:57:46.502Z,10.68
2023-02-19T15:00:28.860Z,9.88
2023-02-19T15:03:02.928Z,12.88
2023-02-19T15:05:38.943Z,9.70
2023-02-19T15:08:15.472Z,12.82
2023-02-19T15:10:49.533Z,9.65
2023-02-19T15:13:25.811Z,12.05
2023-02-19T15:16:00.278Z,10.70
2023-02-19T15:18:36.874Z,11.83
2023-02-19T15:21:15.582Z,10.70
2023-02-19T15:23:49.564Z,12.33
2023-02-19T15:26:25.696Z,11.28
2023-02-19T15:29:04.874Z,13.15
2023-02-19T15:31:40.299Z,10.32
2023-02-19T15:34:19.478Z,11.22
2023-02-19T15:36:55.471Z,12.43
2023-02-19T15:39:32.796Z,11.65
2023-02-19T15:42:09.390Z,8.00
2023-02-19T15:44:46.849Z,10.20
2023-02-19T15:47:25.018Z,11.60
2023-02-19T15:50:02.548Z,12.30
2023-02-19T15:55:23.459Z,9.75
2023-02-19T15:57:59.655Z,9.73
2023-02-19T16:00:37.630Z,15.03
2023-02-19T16:03:16.714Z,9.83
2023-02-19T16:06:00.480Z,10.63
2023-02-19T16:08:36.013Z,11.95
2023-02-19T16:11:22.729Z,11.88
2023-02-19T16:14:15.438Z,12.93
2023-02-19T16:16:51.406Z,9.10
2023-02-19T16:19:28.599Z,11.83
2023-02-19T16:22:02.410Z,10.80
2023-02-19T16:24:38.530Z,10.15
2023-02-19T16:27:12.433Z,9.78
2023-02-19T16:32:29.798Z,9.13
2023-02-19T16:35:03.456Z,11.78
2023-02-19T16:37:40.842Z,11.30
2023-02-19T16:40:56.609Z,11.28
2023-02-19T16:43:34.343Z,10.28
2023-02-19T16:46:11.723Z,10.98
2023-02-19T16:48:45.590Z,9.25
2023-02-19T16:51:23.430Z,11.83
2023-02-19T16:54:00.145Z,12.25
2023-02-19T16:56:33.815Z,11.45
2023-02-19T16:59:08.180Z,12.55
2023-02-19T17:01:42.285Z,8.63
2023-02-19T17:04:16.458Z,12.85
2023-02-19T17:06:50.178Z,11.43
2023-02-19T17:09:23.919Z,10.95
2023-02-19T17:11:57.630Z,10.60
2023-02-19T17:14:31.211Z,9.95
2023-02-19T17:17:05.390Z,10.95
2023-02-19T17:19:40.285Z,10.58
2023-02-19T17:22:16.449Z,10.68
2023-02-19T17:24:50.041Z,12.70
2023-02-19T17:27:23.762Z,9.85
2023-02-19T17:29:57.215Z,11.35
2023-02-19T17:32:30.482Z,13.55
2023-02-19T17:35:03.976Z,11.83
2023-02-19T17:37:37.594Z,11.73
2023-02-19T17:40:31.869Z,12.73
2023-02-19T17:42:56.489Z,12.98
2023-02-19T17:45:30.294Z,11.65
2023-02-19T17:48:04.138Z,11.78
2023-02-19T17:50:38.946Z,10.68
2023-02-19T17:53:12.617Z,11.43
2023-02-19T17:55:46.345Z,11.50
2023-02-19T17:58:19.912Z,13.43
2023-02-19T18:00:53.925Z,12.07
2023-02-19T18:03:27.819Z,10.35
2023-02-19T18:06:01.548Z,10.53
2023-02-19T18:08:35.114Z,11.65
2023-02-19T18:11:09.489Z,11.50
2023-02-19T18:13:43.015Z,11.30
2023-02-19T18:16:17.387Z,12.90
2023-02-19T18:18:51.154Z,13.25
2023-02-19T18:21:26.007Z,10.25
2023-02-19T18:23:59.546Z,11.93
2023-02-19T18:26:33.773Z,14.20
2023-02-19T18:29:07.999Z,12.82
2023-02-19T18:31:41.833Z,15.23
2023-02-19T18:34:20.247Z,10.85
2023-02-19T18:36:53.742Z,11.12
2023-02-19T18:39:27.137Z,13.78
2023-02-19T18:42:01.221Z,13.48
2023-02-19T18:44:34.668Z,13.35
2023-02-19T18:47:08.751Z,12.28
2023-02-19T18:49:43.772Z,12.58
2023-02-19T18:52:19.428Z,13.03
2023-02-19T18:54:53.596Z,12.80
2023-02-19T18:57:27.693Z,12.88
2023-02-19T19:00:01.095Z,11.18
2023-02-19T19:02:48.405Z,13.15
2023-02-19T19:05:11.891Z,14.38
2023-02-19T19:07:45.490Z,14.07
2023-02-19T19:10:20.279Z,10.63
2023-02-19T19:12:54.704Z,12.00
2023-02-19T19:15:29.861Z,13.20
2023-02-19T19:18:03.650Z,14.98
2023-02-19T19:20:37.236Z,17.02
2023-02-19T19:23:10.728Z,10.70
2023-02-19T19:25:44.195Z,14.25
2023-02-19T19:28:17.759Z,13.18
2023-02-19T19:30:51.228Z,15.88
2023-02-19T19:33:27.978Z,16.97
2023-02-19T19:36:00.874Z,17.10
2023-02-19T19:38:34.548Z,16.65
2023-02-19T19:41:08.729Z,15.48
2023-02-19T19:43:41.760Z,15.15
2023-02-19T19:46:19.330Z,17.25
2023-02-19T19:48:54.096Z,16.45
2023-02-19T19:51:33.340Z,18.60
2023-02-19T19:54:10.846Z,19.37
2023-02-19T19:56:45.614Z,16.93
2023-02-19T19:59:19.856Z,19.30
2023-02-19T20:01:57.229Z,18.07
2023-02-19T20:04:31.823Z,17.73
2023-02-19T20:07:05.550Z,18.10
2023-02-19T20:09:38.971Z,15.23
2023-02-19T20:12:13.162Z,16.55
2023-02-19T20:14:48.053Z,18.07
2023-02-19T20:17:24.954Z,17.02
2023-02-19T20:19:58.638Z,16.57
2023-02-19T20:22:32.261Z,15.15
2023-02-19T20:25:06.357Z,14.65
2023-02-19T20:27:40.130Z,16.45
2023-02-19T20:30:17.787Z,15.35
2023-02-19T20:32:51.735Z,13.08
2023-02-19T20:35:28.081Z,11.55
2023-02-19T20:38:01.680Z,13.72
2023-02-19T20:40:36.329Z,14.45
2023-02-19T20:43:09.991Z,9.63
2023-02-19T20:45:45.730Z,13.45
2023-02-19T20:48:20.086Z,16.52
2023-02-19T20:50:55.919Z,11.48
2023-02-19T20:53:30.188Z,17.02
2023-02-19T20:56:03.746Z,9.95
2023-02-19T20:58:37.524Z,12.60
2023-02-19T21:01:11.952Z,14.15
2023-02-19T21:03:45.499Z,13.62
2023-02-19T21:06:18.831Z,10.20
2023-02-19T21:08:52.610Z,14.20
2023-02-19T21:11:26.389Z,10.90
2023-02-19T21:14:00.083Z,10.63
2023-02-19T21:16:34.629Z,15.43
2023-02-19T21:19:08.107Z,11.18
2023-02-19T21:21:41.680Z,12.65
2023-02-19T21:24:16.669Z,15.00
2023-02-19T21:26:52.471Z,13.85
2023-02-19T21:29:26.179Z,11.45
2023-02-19T21:32:00.190Z,14.53
2023-02-19T21:34:33.619Z,14.78
2023-02-19T21:37:07.251Z,15.45
2023-02-19T21:39:42.408Z,15.48
2023-02-19T21:42:16.174Z,17.02
2023-02-19T21:44:49.604Z,16.60
2023-02-19T21:47:22.873Z,14.50
2023-02-19T21:49:56.667Z,13.53
2023-02-19T21:52:31.267Z,10.80
2023-02-19T21:55:04.527Z,14.98
2023-02-19T21:57:37.893Z,14.80
2023-02-19T22:00:13.331Z,13.35
2023-02-19T22:02:46.749Z,13.85
2023-02-19T22:05:20.201Z,14.35
2023-02-19T22:07:54.009Z,15.23
2023-02-19T22:10:27.531Z,15.83
2023-02-19T22:13:01.035Z,15.93
2023-02-19T22:15:34.613Z,16.10
2023-02-19T22:18:08.544Z,16.48
2023-02-19T22:20:42.272Z,13.90
2023-02-19T22:23:15.736Z,10.95
2023-02-19T22:25:49.282Z,12.47
2023-02-19T22:28:23.168Z,13.10
2023-02-19T22:30:56.621Z,15.80
2023-02-19T22:33:30.131Z,14.78
2023-02-19T22:36:04.086Z,15.08
2023-02-19T22:38:37.549Z,10.95
2023-02-19T22:41:11.229Z,15.30
2023-02-19T22:43:44.641Z,17.05
2023-02-19T22:46:20.615Z,13.95
2023-02-19T22:48:54.253Z,15.48
2023-02-19T22:51:28.044Z,16.85
2023-02-19T22:54:02.359Z,16.15
2023-02-19T22:56:36.179Z,11.38
2023-02-19T22:59:09.728Z,15.43
2023-02-19T23:01:43.040Z,17.55
2023-02-19T23:04:16.783Z,15.25
2023-02-19T23:06:50.674Z,15.58
2023-02-19T23:09:26.507Z,15.65
2023-02-19T23:12:05.969Z,14.33
2023-02-19T23:14:39.459Z,12.13
2023-02-19T23:17:13.285Z,14.30
2023-02-19T23:19:47.324Z,16.80
2023-02-19T23:22:20.909Z,17.05
2023-02-19T23:24:54.604Z,16.77
2023-02-19T23:27:28.683Z,14.98
2023-02-19T23:30:02.029Z,15.45
2023-02-19T23:32:35.485Z,17.30
2023-02-19T23:35:09.382Z,15.23
2023-02-19T23:37:42.912Z,14.90
2023-02-19T23:40:17.303Z,16.07
2023-02-19T23:42:52.283Z,16.48
2023-02-19T23:45:25.821Z,15.50
2023-02-19T23:47:59.281Z,17.35
2023-02-19T23:50:32.845Z,16.45
2023-02-19T23:53:06.712Z,16.10
2023-02-19T23:55:41.707Z,15.68
2023-02-19T23:58:15.479Z,14.45
